Forside
METAR-TAF:

METAR-TAF

Lufthavne :

Hagåtña, Guam, USA

Breddekreds: 13-29N, længdekreds: 144-48E, højde: 91 m

Aktuelle vejr

Denne rapport blev lavet for 22 minutter siden, kl. 12:54 UTC
Vind 11 kt fra østnordøst
Temperatur 28°C
Fugtighed 94%
Tryk 1012 hPa
Sigt: 16.1 km
Nogle få skyer i en højde af 1700 ft
Spredte skyer i en højde af 2400 ft

METAR: PGUM 191254Z 07011KT 10SM FEW017 SCT024 28/27 A2989 RMK AO2 RAE1155 SLP115 P0000 T02780267

Tid: 23:16 (13:16 UTC)

Vejrudsigter

Denne rapport blev lavet for 1 time og 52 minutter siden, kl. 11:24 UTC
Foreløbig gælder fra 19 på 12 UTC til 20 på 18 UTC
Vind 12 kt fra østnordøst
Sigt: 10 km
Spredte skyer i en højde af 2000 ft
Brudte skyer i en højde af 10000 ft
byger i nærheden

TAF: PGUM 191124Z 1912/2018 07012KT P6SM VCSH SCT020 BKN100

Vejrobservationer og prognoser fra mere end 4000 lufthavne (METAR og TAF).

De gule og røde prikker repræsenterer de meteorologiske stationer.

Flyt musen over at se navnet på stationen.

Så klik over at se vejr observationer og prognoser.

At skifte det kort: Klik på de grønne knapper med et sort kors for at zoome ind; på den grønne knap med en bindestreg for at zoome ud; eller på de grønne pile for tilstødende kort.


METAR-TAF: